Flight Track Log - Related Links

Times and Time Zones

All times are in EDT time to prevent confusion due to time zone crossing. See the EJA922 flight status page for this flight to view local times or setup timezone preferences in your user account.

Time Position Orientation Groundspeed Altitude Reporting Facility
EDT Latitude Longitude Course Direction KTS MPH feet Rate Location/Type
Thu 10:12:36 AM 42.5958 -99.8400 75° East 282 325 9,700  Level Denver Center
Thu 10:13:38 AM 42.5836 -99.7261 98° East 297 342 11,400 1,600 Climbing Denver Center
Thu 10:14:36 AM 42.5681 -99.5947 99° East 333 383 12,900 1,950 Climbing Minneapolis Center
Thu 10:15:38 AM 42.5656 -99.4408 91° East 382 440 15,300 2,460 Climbing Minneapolis Center
Thu 10:16:55 AM 42.5900 -99.2261 81° East 409 471 18,600 2,115 Climbing Denver Center
Thu 10:17:00 AM 42.7402 -99.2285 75° East  Level Estimated
Thu 10:17:57 AM 42.6078 -99.0669 81° East 422 486 20,200  Level Denver Center
Thu 10:18:43 AM 42.6225 -98.9328 81° East 441 507 21,500 1,794 Climbing Minneapolis Center
Thu 10:19:44 AM 42.6414 -98.7597 82° East 456 525 23,400 1,610 Climbing Minneapolis Center
Thu 10:20:46 AM 42.6614 -98.5836 81° East 466 536 24,800 1,561 Climbing Minneapolis Center
Thu 10:21:47 AM 42.6792 -98.4036 82° East 476 548 26,600 1,561 Climbing Minneapolis Center
Thu 10:22:49 AM 42.6981 -98.2214 82° East 483 556 28,000 1,073 Climbing Minneapolis Center
Thu 10:23:50 AM 42.7158 -98.0378 82° East 487 560 28,800 488 Climbing Minneapolis Center
Thu 10:24:52 AM 42.7339 -97.8589 82° East 486 559 29,000 98 Climbing Minneapolis Center
Thu 10:25:53 AM 42.7561 -97.6467 82° East 480 552 29,000  Level Minneapolis Center
Thu 10:26:55 AM 42.7733 -97.4658 83° East 482 555 29,000  Level Minneapolis Center
Thu 10:27:57 AM 42.7914 -97.2836 82° East 486 559 29,000  Level Minneapolis Center
Thu 10:28:58 AM 42.8078 -97.0992 83° East 490 564 29,000  Level Minneapolis Center
Thu 10:30:00 AM 42.8256 -96.9147 82° East 492 566 29,000  Level Minneapolis Center
Thu 10:31:02 AM 42.8414 -96.7303 83° East 493 567 29,000  Level Minneapolis Center
Thu 10:32:03 AM 42.8581 -96.5467 83° East 492 566 29,000  Level Minneapolis Center
Thu 10:33:05 AM 42.8775 -96.3261 83° East 492 566 29,000  Level Minneapolis Center
Thu 10:34:07 AM 42.8933 -96.1356 83° East 501 577 29,000  Level Minneapolis Center
Thu 10:35:08 AM 42.9100 -95.9414 83° East 513 590 29,000 -390 Level Minneapolis Center
Thu 10:36:10 AM 42.9258 -95.7447 84° East 520 598 28,200 -1,561 Descending Minneapolis Center
Thu 10:37:11 AM 42.9414 -95.5436 84° East 529 609 25,800 -1,854 Descending Minneapolis Center
Thu 10:38:13 AM 42.9575 -95.3453 84° East 531 611 24,400 -1,694 Descending Minneapolis Center
Thu 10:39:15 AM 42.9714 -95.1547 84° East 516 594 22,300 -2,244 Descending Minneapolis Center
Thu 10:40:16 AM 42.9883 -94.9292 84° East 503 579 19,800 -2,390 Descending Minneapolis Center
Thu 10:41:18 AM 43.0025 -94.7467 84° East 491 565 17,400 -2,177 Descending Minneapolis Center
Thu 10:42:20 AM 43.0144 -94.5703 85° East 477 549 15,300 -2,032 Descending Minneapolis Center
Thu 10:43:22 AM 43.0258 -94.4092 84° East 438 504 13,200 -2,146 Descending Minneapolis Center
Thu 10:44:23 AM 43.0378 -94.2344 85° East 421 484 10,900 -1,415 Descending Minneapolis Center
Thu 10:45:25 AM 43.0481 -94.0794 85° East 415 478 10,300 -435 Descending Minneapolis Center
Thu 10:46:27 AM 43.0575 -93.9172 85° East 428 493 10,000 -145 Descending Minneapolis Center
Thu 10:47:29 AM 43.0678 -93.7558 85° East 431 496 10,000  Level Minneapolis Center
Thu 10:48:30 AM 43.0781 -93.5978 85° East 424 488 10,000  Level Minneapolis Center
Thu 10:49:32 AM 43.0878 -93.4392 85° East 423 487 10,000  Level Minneapolis Center
Thu 10:50:34 AM 43.1494 -93.2719 63° Northeast 425 489 10,000  Level Minneapolis Center
Thu 10:51:36 AM 43.2464 -93.1769 36° Northeast 430 495 10,000  Level Minneapolis Center
Thu 10:52:37 AM 43.3556 -93.0656 37° Northeast 438 504 10,000 -488 Level Minneapolis Center
Thu 10:53:39 AM 43.4497 -92.9708 36° Northeast 428 493 9,000 -919 Descending Minneapolis Center
Thu 10:54:41 AM 43.5331 -92.8842 37° Northeast 348 400 8,100 -1,161 Descending Minneapolis Center
Thu 10:55:43 AM 43.5928 -92.7986 46° Northeast 317 365 6,600 -968 Descending Minneapolis Center
Thu 10:56:45 AM 43.6514 -92.7161 46° Northeast 307 353 6,100 -927 Descending Minneapolis Center
Thu 10:57:46 AM 43.6669 -92.6017 79° East 287 330 4,700 -976 Descending Minneapolis Center
Thu 10:58:48 AM 43.7261 -92.5478 33° Northeast 265 305 4,100 -558 Descending Minneapolis Center
Thu 10:59:55 AM 43.7975 -92.4994 26° Northeast 250 288 3,500 -512 Descending Minneapolis Center
Thu 11:00:57 AM 43.8619 -92.4572 25° Northeast 241 277 3,000 -484 Descending Minneapolis Center
Thu 11:01:59 AM 43.9122 -92.4292 22° Northeast 206 237 2,500 -537 Descending Minneapolis Center
Thu 11:03:00 AM 43.9336 -92.4739 304° West 140 161 1,900 -634 Descending Minneapolis Center
Thu 11:04:02 AM 43.9086 -92.4992 216° Southwest 132 152 1,200 -677 Descending Minneapolis Center

Login

Don't have an account? Register now (free) for customized features, flight alerts, and more!